createdAt,value
2019-05-10T00:00:35.900Z,99714.06
2019-05-10T00:03:23.413Z,99714.00
2019-05-10T00:06:10.057Z,99715.72
2019-05-10T00:08:47.621Z,99718.41
2019-05-10T00:11:36.534Z,99720.23
2019-05-10T00:14:11.346Z,99724.24
2019-05-10T00:16:40.703Z,99718.30
2019-05-10T00:19:10.069Z,99721.83
2019-05-10T00:21:39.407Z,99720.53
2019-05-10T00:24:08.763Z,99721.34
2019-05-10T00:26:38.126Z,99726.42
2019-05-10T00:29:07.478Z,99722.80
2019-05-10T00:31:36.908Z,99718.67
2019-05-10T00:34:06.259Z,99725.42
2019-05-10T00:36:35.583Z,99716.17
2019-05-10T00:39:07.544Z,99721.27
2019-05-10T00:41:36.871Z,99716.86
2019-05-10T00:44:06.223Z,99714.13
2019-05-10T00:46:35.577Z,99710.12
2019-05-10T00:49:04.933Z,99717.42
2019-05-10T00:51:34.299Z,99716.09
2019-05-10T00:54:03.857Z,99717.73
2019-05-10T00:56:33.237Z,99728.59
2019-05-10T00:59:02.590Z,99723.33
2019-05-10T01:01:31.949Z,99725.52
2019-05-10T01:04:01.315Z,99726.34
2019-05-10T01:06:30.693Z,99725.84
2019-05-10T01:09:00.064Z,99728.55
2019-05-10T01:11:29.482Z,99726.97
2019-05-10T01:13:58.835Z,99741.95
2019-05-10T01:16:28.174Z,99732.50
2019-05-10T01:18:57.520Z,99740.77
2019-05-10T01:21:26.926Z,99733.80
2019-05-10T01:23:56.274Z,99744.16
2019-05-10T01:26:25.638Z,99740.17
2019-05-10T01:28:54.986Z,99747.58
2019-05-10T01:31:25.299Z,99740.55
2019-05-10T01:33:54.682Z,99740.43
2019-05-10T01:36:24.397Z,99746.41
2019-05-10T01:38:53.757Z,99746.72
2019-05-10T01:41:23.128Z,99749.70
2019-05-10T01:43:52.492Z,99748.73
2019-05-10T01:46:21.874Z,99748.30
2019-05-10T01:48:51.261Z,99753.46
2019-05-10T01:51:20.636Z,99750.84
2019-05-10T01:53:49.994Z,99745.69
2019-05-10T01:56:19.361Z,99749.98
2019-05-10T01:58:48.693Z,99754.77
2019-05-10T02:01:19.011Z,99756.17
2019-05-10T02:03:48.386Z,99754.92
2019-05-10T02:06:17.747Z,99750.66
2019-05-10T02:08:48.098Z,99762.91
2019-05-10T02:11:17.435Z,99764.69
2019-05-10T02:13:46.771Z,99763.72
2019-05-10T02:16:16.131Z,99768.95
2019-05-10T02:18:45.482Z,99767.30
2019-05-10T02:21:14.825Z,99776.44
2019-05-10T02:23:44.252Z,99774.27
2019-05-10T02:26:13.603Z,99775.05
2019-05-10T02:28:42.952Z,99783.19
2019-05-10T02:31:12.336Z,99780.95
2019-05-10T02:33:41.686Z,99775.67
2019-05-10T02:36:11.091Z,99782.17
2019-05-10T02:38:40.409Z,99783.04
2019-05-10T02:41:09.785Z,99784.38
2019-05-10T02:43:39.150Z,99790.09
2019-05-10T02:46:08.513Z,99793.73
2019-05-10T02:48:38.861Z,99799.95
2019-05-10T02:51:08.199Z,99804.73
2019-05-10T02:53:37.990Z,99795.27
2019-05-10T02:56:07.304Z,99803.29
2019-05-10T02:58:37.304Z,99797.34
2019-05-10T03:01:09.363Z,99806.97
2019-05-10T03:03:40.383Z,99809.66
2019-05-10T03:06:11.596Z,99807.66
2019-05-10T03:08:49.442Z,99816.88
2019-05-10T03:11:19.625Z,99818.70
2019-05-10T03:13:51.460Z,99819.30
2019-05-10T03:16:23.267Z,99817.67
2019-05-10T03:18:53.444Z,99829.01
2019-05-10T03:21:24.099Z,99823.73
2019-05-10T03:23:54.432Z,99824.11
2019-05-10T03:26:23.789Z,99828.41
2019-05-10T03:28:53.135Z,99831.02
2019-05-10T03:31:22.568Z,99843.20
2019-05-10T03:33:56.603Z,99844.18
2019-05-10T03:36:23.978Z,99844.67
2019-05-10T03:38:53.416Z,99847.30
2019-05-10T03:41:22.771Z,99853.88
2019-05-10T03:43:52.147Z,99852.60
2019-05-10T03:46:21.507Z,99855.21
2019-05-10T03:48:50.862Z,99862.23
2019-05-10T03:51:20.236Z,99858.80
2019-05-10T03:53:49.614Z,99860.11
2019-05-10T03:56:19.981Z,99866.22
2019-05-10T03:58:49.337Z,99863.17
2019-05-10T04:01:18.777Z,99872.30
2019-05-10T04:03:48.219Z,99872.37
2019-05-10T04:06:17.581Z,99880.62
2019-05-10T04:08:47.012Z,99881.08
2019-05-10T04:11:16.362Z,99883.30
2019-05-10T04:13:45.745Z,99884.13
2019-05-10T04:16:15.091Z,99891.92
2019-05-10T04:18:44.532Z,99887.60
2019-05-10T04:21:13.896Z,99894.97
2019-05-10T04:23:44.225Z,99904.08
2019-05-10T04:26:13.609Z,99901.00
2019-05-10T04:28:42.967Z,99905.81
2019-05-10T04:31:12.330Z,99902.77
2019-05-10T04:33:41.708Z,99907.97
2019-05-10T04:36:12.993Z,99918.35
2019-05-10T04:38:42.494Z,99917.45
2019-05-10T04:41:11.868Z,99920.13
2019-05-10T04:43:41.243Z,99928.72
2019-05-10T04:46:10.630Z,99923.04
2019-05-10T04:48:39.998Z,99919.48
2019-05-10T04:51:09.366Z,99932.48
2019-05-10T04:53:38.768Z,99941.13
2019-05-10T04:56:08.124Z,99943.69
2019-05-10T04:58:37.489Z,99940.23
2019-05-10T05:01:06.847Z,99952.80
2019-05-10T05:03:36.248Z,99954.49
2019-05-10T05:06:05.634Z,99957.43
2019-05-10T05:08:34.992Z,99964.37
2019-05-10T05:11:04.342Z,99960.38
2019-05-10T05:13:33.713Z,99962.09
2019-05-10T05:16:03.086Z,99960.84
2019-05-10T05:18:32.478Z,99968.16
2019-05-10T05:21:01.859Z,99977.20
2019-05-10T05:23:31.219Z,99977.61
2019-05-10T05:26:00.595Z,99977.20
2019-05-10T05:28:29.973Z,99978.02
2019-05-10T05:30:59.345Z,99987.11
2019-05-10T05:33:28.694Z,99987.49
2019-05-10T05:36:02.041Z,99990.11
2019-05-10T05:38:29.139Z,99988.39
2019-05-10T05:40:58.497Z,99992.33
2019-05-10T05:43:27.959Z,99992.72
2019-05-10T05:45:57.317Z,99987.92
2019-05-10T05:48:39.434Z,99994.86
2019-05-10T05:50:57.766Z,99989.64
2019-05-10T05:53:27.107Z,100000.01
2019-05-10T05:55:56.499Z,100003.91
2019-05-10T05:58:27.199Z,100005.19
2019-05-10T06:00:56.819Z,100006.08
2019-05-10T06:03:29.198Z,100015.62
2019-05-10T06:05:57.273Z,100012.14
2019-05-10T06:08:29.911Z,100022.95
2019-05-10T06:11:00.032Z,100020.19
2019-05-10T06:13:31.012Z,100019.59
2019-05-10T06:16:00.735Z,100024.69
2019-05-10T06:18:30.954Z,100022.98
2019-05-10T06:21:00.358Z,100032.12
2019-05-10T06:23:35.192Z,100039.52
2019-05-10T06:26:00.828Z,100047.89
2019-05-10T06:28:56.871Z,100050.94
2019-05-10T06:31:01.334Z,100048.73
2019-05-10T06:33:30.766Z,100056.14
2019-05-10T06:36:00.150Z,100058.24
2019-05-10T06:38:29.528Z,100066.84
2019-05-10T06:40:58.882Z,100066.39
2019-05-10T06:43:28.239Z,100065.80
2019-05-10T06:45:57.622Z,100071.78
2019-05-10T06:48:33.210Z,100077.80
2019-05-10T06:51:03.029Z,100079.00
2019-05-10T06:53:29.125Z,100077.57
2019-05-10T06:55:58.532Z,100092.08
2019-05-10T06:58:30.624Z,100092.08
2019-05-10T07:00:58.942Z,100064.08
2019-05-10T07:03:28.317Z,100098.44
2019-05-10T07:05:57.706Z,100106.72
2019-05-10T07:08:27.077Z,100112.20
2019-05-10T07:10:56.477Z,100110.12
2019-05-10T07:13:25.845Z,100110.12
2019-05-10T07:15:55.202Z,100112.70
2019-05-10T07:18:24.595Z,100121.05
2019-05-10T07:20:53.940Z,100130.86
2019-05-10T07:23:23.323Z,100127.34
2019-05-10T07:25:52.658Z,100127.34
2019-05-10T07:28:22.038Z,100135.22
2019-05-10T07:30:51.395Z,100138.81
2019-05-10T07:33:20.770Z,100139.66
2019-05-10T07:35:50.140Z,100139.16
2019-05-10T07:38:23.500Z,100157.03
2019-05-10T07:40:50.663Z,100155.81
2019-05-10T07:43:26.676Z,100161.12
2019-05-10T07:45:51.112Z,100162.60
2019-05-10T07:48:23.138Z,100162.17
2019-05-10T07:50:51.902Z,100164.66
2019-05-10T07:53:22.971Z,100161.11
2019-05-10T07:55:52.486Z,100166.69
2019-05-10T07:58:21.862Z,100160.36
2019-05-10T08:00:51.218Z,100162.63
2019-05-10T08:03:23.630Z,100165.96
2019-05-10T08:05:56.943Z,100173.86
2019-05-10T08:08:22.734Z,100169.73
2019-05-10T08:10:52.119Z,100174.08
2019-05-10T08:13:25.147Z,100184.56
2019-05-10T08:15:52.538Z,100181.54
2019-05-10T08:18:25.395Z,100182.41
2019-05-10T08:20:57.827Z,100188.50
2019-05-10T08:23:27.878Z,100194.80
2019-05-10T08:25:55.087Z,100194.94
2019-05-10T08:28:28.075Z,100199.84
2019-05-10T08:30:58.802Z,100205.23
2019-05-10T08:33:26.723Z,100212.86
2019-05-10T08:36:00.630Z,100209.33
2019-05-10T08:38:27.185Z,100210.24
2019-05-10T08:40:56.539Z,100222.81
2019-05-10T08:43:30.735Z,100220.13
2019-05-10T08:45:58.016Z,100223.95
2019-05-10T08:48:27.793Z,100225.45
2019-05-10T08:51:02.037Z,100227.60
2019-05-10T08:53:28.261Z,100229.72
2019-05-10T08:55:58.898Z,100236.55
2019-05-10T08:58:36.996Z,100235.92
2019-05-10T09:01:12.129Z,100246.02
2019-05-10T09:03:32.241Z,100244.84
2019-05-10T09:06:05.364Z,100246.16
2019-05-10T09:08:34.682Z,100253.36
2019-05-10T09:11:06.582Z,100258.80
2019-05-10T09:13:40.990Z,100260.41
2019-05-10T09:16:05.886Z,100258.36
2019-05-10T09:18:38.097Z,100264.45
2019-05-10T09:21:09.189Z,100275.02
2019-05-10T09:23:38.373Z,100278.14
2019-05-10T09:26:12.038Z,100277.94
2019-05-10T09:28:38.837Z,100282.07
2019-05-10T09:31:18.875Z,100284.22
2019-05-10T09:33:43.310Z,100284.59
2019-05-10T09:36:12.454Z,100291.59
2019-05-10T09:38:43.536Z,100300.45
2019-05-10T09:41:12.563Z,100296.14
2019-05-10T09:43:48.536Z,100298.08
2019-05-10T09:46:14.107Z,100300.56
2019-05-10T09:48:45.068Z,100304.03
2019-05-10T09:51:19.215Z,100307.12
2019-05-10T09:53:48.305Z,100307.94
2019-05-10T09:56:17.310Z,100311.33
2019-05-10T09:58:48.386Z,100312.00
2019-05-10T10:01:21.446Z,100318.76
2019-05-10T10:03:49.954Z,100317.41
2019-05-10T10:06:19.331Z,100321.34
2019-05-10T10:08:53.319Z,100326.64
2019-05-10T10:11:20.746Z,100321.89
2019-05-10T10:13:58.972Z,100328.02
2019-05-10T10:16:21.203Z,100327.35
2019-05-10T10:18:50.594Z,100330.62
2019-05-10T10:21:30.843Z,100333.02
2019-05-10T10:23:51.060Z,100337.46
2019-05-10T10:26:22.278Z,100338.73
2019-05-10T10:28:55.268Z,100338.57
2019-05-10T10:31:29.114Z,100332.34
2019-05-10T10:33:58.525Z,100331.87
2019-05-10T10:36:27.218Z,100335.14
2019-05-10T10:38:55.698Z,100337.77
2019-05-10T10:41:26.321Z,100336.25
2019-05-10T10:43:58.382Z,100342.34
2019-05-10T10:46:28.000Z,100338.27
2019-05-10T10:48:57.518Z,100338.94
2019-05-10T10:51:32.302Z,100337.38
2019-05-10T10:53:58.349Z,100333.14
2019-05-10T10:56:27.816Z,100339.84
2019-05-10T10:58:58.091Z,100336.82
2019-05-10T11:01:37.779Z,100339.74
2019-05-10T11:04:03.694Z,100335.89
2019-05-10T11:06:31.008Z,100340.39
2019-05-10T11:09:01.795Z,100339.34
2019-05-10T11:11:39.018Z,100345.11
2019-05-10T11:14:07.567Z,100345.47
2019-05-10T11:16:35.719Z,100346.67
2019-05-10T11:19:11.451Z,100348.95
2019-05-10T11:21:36.143Z,100350.95
2019-05-10T11:24:10.220Z,100340.30
2019-05-10T11:26:37.107Z,100334.20
2019-05-10T11:29:06.452Z,100325.48
2019-05-10T11:31:36.781Z,100332.05
2019-05-10T11:34:06.439Z,100329.73
2019-05-10T11:36:40.162Z,100336.55
2019-05-10T11:39:21.490Z,100343.17
2019-05-10T11:41:38.962Z,100336.55
2019-05-10T11:44:09.680Z,100337.91
2019-05-10T11:46:41.563Z,100335.00
2019-05-10T11:49:10.721Z,100335.59
2019-05-10T11:51:41.347Z,100335.36
2019-05-10T11:54:11.233Z,100328.48
2019-05-10T11:56:41.186Z,100326.24
2019-05-10T11:59:12.344Z,100326.89
2019-05-10T12:01:41.990Z,100328.16
2019-05-10T12:06:50.061Z,100328.67
2019-05-10T12:09:13.471Z,100321.41
2019-05-10T12:11:51.903Z,100328.92
2019-05-10T12:14:14.037Z,100320.52
2019-05-10T12:16:43.316Z,100322.21
2019-05-10T12:21:43.749Z,100326.55
2019-05-10T12:26:20.297Z,100325.80
2019-05-10T12:26:27.772Z,100323.64
2019-05-10T12:26:49.932Z,100325.95
2019-05-10T12:29:17.058Z,100324.23
2019-05-10T12:31:47.493Z,100325.42
2019-05-10T12:34:17.352Z,100321.22
2019-05-10T12:36:46.732Z,100314.37
2019-05-10T12:39:16.118Z,100315.16
2019-05-10T12:41:49.674Z,100316.67
2019-05-10T12:44:16.577Z,100307.83
2019-05-10T12:46:46.888Z,100318.13
2019-05-10T12:49:16.289Z,100312.03
2019-05-10T12:51:46.633Z,100312.42
2019-05-10T12:54:18.483Z,100312.75
2019-05-10T12:56:47.062Z,100315.14
2019-05-10T12:59:16.408Z,100312.20
2019-05-10T13:04:40.408Z,100316.93
2019-05-10T13:07:04.473Z,100321.98
2019-05-10T13:09:40.331Z,100313.25
2019-05-10T13:12:06.466Z,100313.91
2019-05-10T13:14:40.086Z,100320.30
2019-05-10T13:17:09.693Z,100330.70
2019-05-10T13:19:37.909Z,100329.96
2019-05-10T13:22:07.627Z,100336.76
2019-05-10T13:24:36.934Z,100340.39
2019-05-10T13:27:06.304Z,100344.98
2019-05-10T13:29:35.661Z,100341.18
2019-05-10T13:32:05.086Z,100342.51
2019-05-10T13:34:34.426Z,100341.61
2019-05-10T13:37:03.811Z,100339.02
2019-05-10T13:39:33.161Z,100342.05
2019-05-10T13:42:03.411Z,100340.72
2019-05-10T13:44:37.221Z,100346.41
2019-05-10T13:47:05.605Z,100348.90
2019-05-10T13:49:34.963Z,100351.25
2019-05-10T13:52:04.396Z,100350.16
2019-05-10T13:54:36.051Z,100353.58
2019-05-10T13:57:04.910Z,100355.66
2019-05-10T13:59:34.316Z,100355.48
2019-05-10T14:02:04.707Z,100351.55
2019-05-10T14:04:38.628Z,100356.94
2019-05-10T14:07:05.122Z,100352.61
2019-05-10T14:09:34.495Z,100356.19
2019-05-10T14:12:03.966Z,100355.09
2019-05-10T14:14:33.350Z,100353.75
2019-05-10T14:17:02.728Z,100354.39
2019-05-10T14:19:35.661Z,100346.58
2019-05-10T14:22:03.215Z,100354.70
2019-05-10T14:24:34.891Z,100351.46
2019-05-10T14:27:03.689Z,100352.98
2019-05-10T14:29:36.717Z,100353.66
2019-05-10T14:32:04.123Z,100338.61
2019-05-10T14:34:38.007Z,100344.97
2019-05-10T14:37:04.579Z,100339.30
2019-05-10T14:39:33.929Z,100347.07
2019-05-10T14:42:03.294Z,100336.62
2019-05-10T14:44:32.668Z,100338.66
2019-05-10T14:47:02.067Z,100343.29
2019-05-10T14:49:31.442Z,100338.59
2019-05-10T14:52:00.811Z,100342.80
2019-05-10T14:54:42.509Z,100359.54
2019-05-10T14:57:01.237Z,100362.91
2019-05-10T14:59:30.616Z,100364.78
2019-05-10T15:01:59.975Z,100366.52
2019-05-10T15:04:44.439Z,100365.87
2019-05-10T15:07:00.532Z,100367.53
2019-05-10T15:09:29.888Z,100369.64
2019-05-10T15:11:59.267Z,100372.13
2019-05-10T15:14:28.605Z,100381.61
2019-05-10T15:16:57.992Z,100378.61
2019-05-10T15:19:31.210Z,100383.80
2019-05-10T15:21:58.429Z,100383.07
2019-05-10T15:24:27.802Z,100387.69
2019-05-10T15:26:57.178Z,100389.71
2019-05-10T15:29:26.542Z,100399.09
2019-05-10T15:31:55.926Z,100412.30
2019-05-10T15:34:25.275Z,100433.74
2019-05-10T15:36:54.643Z,100436.48
2019-05-10T15:39:28.689Z,100435.33
2019-05-10T15:41:59.076Z,100440.80
2019-05-10T15:44:31.218Z,100441.09
2019-05-10T15:46:57.205Z,100420.48
2019-05-10T15:49:26.585Z,100413.92
2019-05-10T15:52:15.105Z,100423.45
2019-05-10T15:54:26.990Z,100417.30
2019-05-10T15:57:09.201Z,100418.15
2019-05-10T15:59:38.638Z,100408.08
2019-05-10T16:02:08.044Z,100410.22
2019-05-10T16:04:37.530Z,100404.48
2019-05-10T16:07:09.413Z,100406.83
2019-05-10T16:09:37.933Z,100413.11
2019-05-10T16:12:08.659Z,100407.36
2019-05-10T16:14:39.336Z,100409.42
2019-05-10T16:17:10.366Z,100409.98
2019-05-10T16:19:40.403Z,100406.70
2019-05-10T16:22:09.783Z,100410.20
2019-05-10T16:24:39.159Z,100411.08
2019-05-10T16:27:08.557Z,100406.95
2019-05-10T16:29:39.709Z,100409.08
2019-05-10T16:32:08.998Z,100408.39
2019-05-10T16:34:38.386Z,100415.45
2019-05-10T16:37:07.768Z,100412.52
2019-05-10T16:39:37.106Z,100405.58
2019-05-10T16:42:06.488Z,100405.67
2019-05-10T16:44:35.835Z,100398.80
2019-05-10T16:47:05.285Z,100397.33
2019-05-10T16:49:34.676Z,100393.75
2019-05-10T16:52:04.081Z,100399.81
2019-05-10T16:54:33.469Z,100392.78
2019-05-10T16:57:02.806Z,100389.25
2019-05-10T16:59:35.041Z,100386.93
2019-05-10T17:02:06.176Z,100389.79
2019-05-10T17:04:37.846Z,100388.31
2019-05-10T17:07:05.382Z,100389.77
2019-05-10T17:09:34.736Z,100383.41
2019-05-10T17:12:04.178Z,100383.57
2019-05-10T17:14:33.582Z,100381.94
2019-05-10T17:17:02.939Z,100384.71
2019-05-10T17:19:34.294Z,100375.65
2019-05-10T17:22:03.367Z,100381.83
2019-05-10T17:24:32.745Z,100378.95
2019-05-10T17:27:02.118Z,100377.25
2019-05-10T17:29:31.488Z,100376.03
2019-05-10T17:32:00.834Z,100379.14
2019-05-10T17:34:30.319Z,100383.57
2019-05-10T17:36:59.929Z,100388.46
2019-05-10T17:39:32.135Z,100389.45
2019-05-10T17:42:03.091Z,100386.91
2019-05-10T17:44:31.405Z,100388.72
2019-05-10T17:47:00.772Z,100387.02
2019-05-10T17:49:30.125Z,100387.11
2019-05-10T17:51:59.510Z,100390.22
2019-05-10T17:54:33.744Z,100395.50
2019-05-10T17:56:59.927Z,100394.21
2019-05-10T17:59:29.289Z,100390.70
2019-05-10T18:01:58.656Z,100395.45
2019-05-10T18:04:28.050Z,100400.32
2019-05-10T18:06:57.432Z,100405.59
2019-05-10T18:09:26.885Z,100403.52
2019-05-10T18:11:56.267Z,100409.74
2019-05-10T18:14:25.639Z,100404.66
2019-05-10T18:16:55.027Z,100407.91
2019-05-10T18:19:26.194Z,100418.04
2019-05-10T18:22:00.728Z,100415.47
2019-05-10T18:24:30.229Z,100415.47
2019-05-10T18:26:57.704Z,100410.67
2019-05-10T18:29:27.063Z,100408.12
2019-05-10T18:31:58.336Z,100411.23
2019-05-10T18:34:33.400Z,100416.58
2019-05-10T18:36:58.600Z,100405.83
2019-05-10T18:39:27.967Z,100411.51
2019-05-10T18:41:57.329Z,100416.81
2019-05-10T18:44:26.697Z,100428.99
2019-05-10T18:46:56.080Z,100425.08
2019-05-10T18:49:25.446Z,100422.91
2019-05-10T18:52:03.955Z,100425.47
2019-05-10T18:54:25.907Z,100423.73
2019-05-10T18:56:55.267Z,100418.93
2019-05-10T18:59:24.665Z,100421.50
2019-05-10T19:01:54.030Z,100411.09
2019-05-10T19:04:23.399Z,100408.00
2019-05-10T19:07:07.642Z,100405.88
2019-05-10T19:09:23.833Z,100412.88
2019-05-10T19:11:53.434Z,100417.22
2019-05-10T19:14:23.921Z,100417.28
2019-05-10T19:16:54.020Z,100406.00
2019-05-10T19:19:23.403Z,100419.50
2019-05-10T19:21:52.756Z,100425.68
2019-05-10T19:24:24.256Z,100440.09
2019-05-10T19:26:53.350Z,100434.53
2019-05-10T19:29:22.733Z,100439.79
2019-05-10T19:31:52.078Z,100436.40
2019-05-10T19:34:21.485Z,100446.86
2019-05-10T19:36:50.838Z,100460.39
2019-05-10T19:39:20.194Z,100460.39
2019-05-10T19:41:49.565Z,100459.50
2019-05-10T19:44:18.922Z,100456.88
2019-05-10T19:46:48.274Z,100456.83
2019-05-10T19:49:17.646Z,100454.09
2019-05-10T19:51:49.055Z,100454.09
2019-05-10T19:54:19.449Z,100459.34
2019-05-10T19:56:49.250Z,100468.42
2019-05-10T19:59:18.603Z,100464.45
2019-05-10T20:01:47.974Z,100456.96
2019-05-10T20:04:18.313Z,100459.56
2019-05-10T20:06:47.691Z,100459.56
2019-05-10T20:09:17.054Z,100466.10
2019-05-10T20:11:46.473Z,100466.50
2019-05-10T20:14:15.893Z,100446.98
2019-05-10T20:16:52.551Z,100452.12
2019-05-10T20:19:16.350Z,100454.74
2019-05-10T20:21:45.759Z,100459.16
2019-05-10T20:24:15.118Z,100459.16
2019-05-10T20:26:44.525Z,100466.50
2019-05-10T20:29:13.880Z,100466.51
2019-05-10T20:31:43.307Z,100459.97
2019-05-10T20:34:12.692Z,100461.75
2019-05-10T20:36:42.051Z,100458.26
2019-05-10T20:39:11.428Z,100460.45
2019-05-10T20:41:40.808Z,100465.73
2019-05-10T20:44:10.176Z,100473.16
2019-05-10T20:46:39.573Z,100473.57
2019-05-10T20:49:08.912Z,100465.26
2019-05-10T20:51:38.295Z,100451.31
2019-05-10T20:54:07.732Z,100450.02
2019-05-10T20:56:37.083Z,100450.06
2019-05-10T20:59:06.463Z,100455.28
2019-05-10T21:01:35.870Z,100454.39
2019-05-10T21:04:05.261Z,100454.39
2019-05-10T21:06:35.603Z,100454.39
2019-05-10T21:09:06.535Z,100449.59
2019-05-10T21:11:35.931Z,100450.89
2019-05-10T21:14:06.333Z,100444.36
2019-05-10T21:16:35.732Z,100440.92
2019-05-10T21:19:05.118Z,100448.28
2019-05-10T21:21:34.466Z,100446.98
2019-05-10T21:24:03.916Z,100442.17
2019-05-10T21:26:33.290Z,100431.73
2019-05-10T21:29:02.644Z,100427.40
2019-05-10T21:31:32.794Z,100427.45
2019-05-10T21:34:09.613Z,100423.97
2019-05-10T21:36:33.285Z,100411.39
2019-05-10T21:39:05.301Z,100410.55
2019-05-10T21:41:34.738Z,100418.86
2019-05-10T21:44:04.135Z,100428.41
2019-05-10T21:46:33.541Z,100430.97
2019-05-10T21:49:02.914Z,100432.27
2019-05-10T21:51:32.289Z,100426.16
2019-05-10T21:54:02.626Z,100425.80
2019-05-10T21:56:35.466Z,100425.80
2019-05-10T21:59:03.092Z,100422.78
2019-05-10T22:01:32.464Z,100422.78
2019-05-10T22:04:01.833Z,100417.08
2019-05-10T22:06:31.204Z,100410.14
2019-05-10T22:09:00.606Z,100414.90
2019-05-10T22:11:31.577Z,100398.38
2019-05-10T22:14:00.937Z,100386.63
2019-05-10T22:16:30.315Z,100392.70
2019-05-10T22:19:01.274Z,100405.34
2019-05-10T22:21:30.683Z,100411.43
2019-05-10T22:24:00.133Z,100403.08
2019-05-10T22:26:30.461Z,100399.56
2019-05-10T22:28:59.838Z,100396.89
2019-05-10T22:31:29.206Z,100396.45
2019-05-10T22:33:58.572Z,100387.18
2019-05-10T22:36:27.950Z,100387.18
2019-05-10T22:39:06.479Z,100384.92
2019-05-10T22:41:28.386Z,100384.92
2019-05-10T22:43:57.772Z,100378.44
2019-05-10T22:46:27.167Z,100385.73
2019-05-10T22:48:56.517Z,100377.01
2019-05-10T22:51:25.922Z,100373.48
2019-05-10T22:53:59.960Z,100356.16
2019-05-10T22:56:26.341Z,100363.03
2019-05-10T22:58:55.697Z,100358.24
2019-05-10T23:01:25.080Z,100354.38
2019-05-10T23:03:54.436Z,100352.59
2019-05-10T23:06:23.824Z,100357.80
2019-05-10T23:08:53.300Z,100352.16
2019-05-10T23:11:22.662Z,100342.23
2019-05-10T23:13:52.051Z,100358.77
2019-05-10T23:16:21.434Z,100358.77
2019-05-10T23:18:50.803Z,100355.34
2019-05-10T23:21:20.178Z,100363.12
2019-05-10T23:23:49.546Z,100356.59
2019-05-10T23:26:18.926Z,100360.91
2019-05-10T23:28:48.330Z,100353.48
2019-05-10T23:31:17.677Z,100348.27
2019-05-10T23:33:48.126Z,100346.48
2019-05-10T23:36:17.484Z,100344.33
2019-05-10T23:38:46.857Z,100342.55
2019-05-10T23:41:16.207Z,100332.23
2019-05-10T23:43:45.559Z,100340.62
2019-05-10T23:46:15.631Z,100340.62
2019-05-10T23:48:45.005Z,100344.55
2019-05-10T23:51:14.400Z,100345.92
2019-05-10T23:53:43.753Z,100330.42
2019-05-10T23:56:13.137Z,100338.27
2019-05-10T23:58:42.508Z,100331.33
